Time;durP1;ratioP1;P1;durP2;ratioP2;P2;SDS_P1;SDS_P2;PMS_P1;PMS_P2;Temp;Humidity;BMP_temperature;BMP_pressure;BME280_temperature;BME280_humidity;BME280_pressure;Samples;Min_cycle;Max_cycle;Signal;HPM_P1;HPM_P2
2021/03/18 00:01:44;;;;;;;;;22.00;22.00;;;;;;;;5035039;27;113035;-78
2021/03/18 00:04:11;;;;;;;;;22.67;22.67;;;;;;;;5034861;27;114090;-79
2021/03/18 00:06:39;;;;;;;;;20.00;20.00;;;;;;;;5035378;27;111809;-77
2021/03/18 00:09:06;;;;;;;;;20.00;18.33;;;;;;;;5032201;27;113931;-78
2021/03/18 00:11:32;;;;;;;;;18.33;18.33;;;;;;;;5037940;27;114056;-79
2021/03/18 00:13:58;;;;;;;;;21.67;20.33;;;;;;;;5042181;27;111902;-78
2021/03/18 00:16:24;;;;;;;;;21.00;20.00;;;;;;;;5038216;27;114360;-78
2021/03/18 00:18:51;;;;;;;;;21.67;21.67;;;;;;;;5038983;27;112292;-78
2021/03/18 00:21:17;;;;;;;;;20.67;20.67;;;;;;;;5038453;27;113285;-78
2021/03/18 00:23:44;;;;;;;;;20.00;20.00;;;;;;;;5038464;27;114272;-78
2021/03/18 00:26:10;;;;;;;;;21.00;17.33;;;;;;;;5039399;27;112683;-78
2021/03/18 00:28:37;;;;;;;;;27.00;20.67;;;;;;;;5038995;27;113602;-78
2021/03/18 00:31:03;;;;;;;;;19.33;19.00;;;;;;;;5038045;27;114126;-78
2021/03/18 00:33:30;;;;;;;;;20.67;19.67;;;;;;;;5039129;27;111911;-78
2021/03/18 00:35:56;;;;;;;;;18.33;17.67;;;;;;;;5041409;27;113615;-78
2021/03/18 00:38:22;;;;;;;;;20.67;18.67;;;;;;;;5038721;27;111870;-78
2021/03/18 00:40:51;;;;;;;;;16.33;16.00;;;;;;;;5039036;27;113650;-77
2021/03/18 00:43:18;;;;;;;;;23.67;16.67;;;;;;;;5037376;27;114035;-77
2021/03/18 00:45:47;;;;;;;;;19.33;16.67;;;;;;;;5039030;27;112452;-77
2021/03/18 00:48:14;;;;;;;;;19.33;17.00;;;;;;;;5038654;27;113669;-78
2021/03/18 00:50:41;;;;;;;;;20.00;19.33;;;;;;;;5037711;27;114088;-78
2021/03/18 00:53:09;;;;;;;;;21.33;17.00;;;;;;;;5037891;27;111937;-78
2021/03/18 00:55:35;;;;;;;;;17.33;16.00;;;;;;;;5034274;27;113614;-76
2021/03/18 00:58:02;;;;;;;;;16.67;16.67;;;;;;;;5040888;27;114295;-75
2021/03/18 01:00:30;;;;;;;;;20.00;15.33;;;;;;;;5038467;27;113450;-76
2021/03/18 01:02:56;;;;;;;;;19.67;16.33;;;;;;;;5037339;27;114299;-77
2021/03/18 01:05:26;;;;;;;;;18.00;12.33;;;;;;;;5037463;27;111898;-77
2021/03/18 01:07:52;;;;;;;;;19.67;18.67;;;;;;;;5037758;27;113678;-77
2021/03/18 01:10:18;;;;;;;;;19.00;18.00;;;;;;;;5037631;27;113985;-77
2021/03/18 01:12:44;;;;;;;;;21.33;17.67;;;;;;;;5038234;27;111927;-74
2021/03/18 01:15:12;;;;;;;;;24.00;18.67;;;;;;;;5037863;27;113385;-75
2021/03/18 01:17:39;;;;;;;;;20.00;19.00;;;;;;;;5037760;27;114242;-75
2021/03/18 01:20:06;;;;;;;;;18.67;12.00;;;;;;;;5037503;27;112050;-76
2021/03/18 01:22:32;;;;;;;;;24.00;20.00;;;;;;;;5036041;27;114254;-79
2021/03/18 01:24:58;;;;;;;;;23.33;22.00;;;;;;;;5038269;27;111890;-75
2021/03/18 01:27:24;;;;;;;;;22.00;16.67;;;;;;;;5037740;27;113656;-78
2021/03/18 01:29:50;;;;;;;;;17.67;16.00;;;;;;;;5037182;27;114674;-78
2021/03/18 01:32:17;;;;;;;;;21.00;20.00;;;;;;;;5037084;27;112092;-76
2021/03/18 01:34:43;;;;;;;;;20.67;18.67;;;;;;;;5038049;27;114121;-77
2021/03/18 01:37:09;;;;;;;;;23.67;20.33;;;;;;;;5036582;27;113970;-78
2021/03/18 01:39:35;;;;;;;;;22.00;18.33;;;;;;;;5033414;27;111898;-75
2021/03/18 01:42:25;;;;;;;;;22.33;19.67;;;;;;;;5075587;27;860429;-77
2021/03/18 01:44:51;;;;;;;;;18.67;15.67;;;;;;;;5083808;27;114464;-77
2021/03/18 01:47:17;;;;;;;;;19.67;17.33;;;;;;;;5087236;27;112118;-77
2021/03/18 01:49:43;;;;;;;;;18.00;18.00;;;;;;;;5082849;27;113694;-78
2021/03/18 01:52:09;;;;;;;;;20.00;18.00;;;;;;;;5081882;27;114285;-79
2021/03/18 01:54:35;;;;;;;;;21.33;15.00;;;;;;;;5085397;27;112100;-79
2021/03/18 01:57:01;;;;;;;;;19.33;16.67;;;;;;;;5082283;27;113250;-78
2021/03/18 01:59:28;;;;;;;;;14.67;14.00;;;;;;;;5084256;27;114393;-78
2021/03/18 02:01:54;;;;;;;;;16.67;16.67;;;;;;;;5086553;27;111909;-77
2021/03/18 02:04:20;;;;;;;;;19.33;17.33;;;;;;;;5083132;27;114061;-77
2021/03/18 02:06:46;;;;;;;;;14.33;14.00;;;;;;;;5084446;27;111891;-77
2021/03/18 02:09:12;;;;;;;;;18.00;15.33;;;;;;;;5083197;27;113775;-77
2021/03/18 02:11:38;;;;;;;;;14.67;14.67;;;;;;;;5084552;27;114179;-77
2021/03/18 02:14:04;;;;;;;;;15.00;14.33;;;;;;;;5081918;27;111939;-77
2021/03/18 02:16:34;;;;;;;;;15.00;14.00;;;;;;;;5084383;27;113135;-78
2021/03/18 02:19:03;;;;;;;;;14.67;14.00;;;;;;;;5081433;27;113963;-78
2021/03/18 02:21:57;;;;;;;;;13.67;11.00;;;;;;;;5084670;27;112884;-77
2021/03/18 02:24:37;;;;;;;;;14.33;14.33;;;;;;;;5089275;27;113969;-77
2021/03/18 02:27:18;;;;;;;;;15.00;13.00;;;;;;;;5081974;27;112069;-77
2021/03/18 02:29:51;;;;;;;;;17.67;14.33;;;;;;;;5085769;27;113594;-78
2021/03/18 02:32:23;;;;;;;;;14.00;14.00;;;;;;;;5086909;27;114203;-77
2021/03/18 02:35:10;;;;;;;;;14.00;11.00;;;;;;;;5083467;27;112738;-77
2021/03/18 02:37:38;;;;;;;;;15.33;15.00;;;;;;;;5083676;27;114392;-78
2021/03/18 02:40:05;;;;;;;;;15.00;13.00;;;;;;;;5080490;27;114133;-77
2021/03/18 02:42:33;;;;;;;;;14.33;13.67;;;;;;;;5085036;27;112460;-78
2021/03/18 02:45:00;;;;;;;;;13.00;13.00;;;;;;;;5082196;27;113047;-78
2021/03/18 02:47:28;;;;;;;;;13.00;13.00;;;;;;;;5087755;27;114967;-78
2021/03/18 02:49:55;;;;;;;;;12.33;12.33;;;;;;;;5082361;27;113523;-77
2021/03/18 02:52:22;;;;;;;;;14.67;13.00;;;;;;;;5076811;27;114100;-77
2021/03/18 02:54:51;;;;;;;;;14.00;14.00;;;;;;;;5069416;27;112429;-77
2021/03/18 02:57:18;;;;;;;;;16.67;15.00;;;;;;;;5065213;27;112897;-78
2021/03/18 02:59:45;;;;;;;;;11.00;10.67;;;;;;;;5069339;27;114193;-78
2021/03/18 03:02:50;;;;;;;;;15.33;13.00;;;;;;;;5085483;27;112365;-79
2021/03/18 03:05:18;;;;;;;;;13.67;11.33;;;;;;;;5063094;27;114181;-77
2021/03/18 03:07:45;;;;;;;;;12.67;12.67;;;;;;;;5062799;27;112263;-79
2021/03/18 03:10:12;;;;;;;;;11.33;10.67;;;;;;;;5064195;27;113905;-78
2021/03/18 03:12:38;;;;;;;;;12.00;10.00;;;;;;;;5061141;27;114033;-78
2021/03/18 03:15:06;;;;;;;;;15.00;14.67;;;;;;;;5065501;27;111955;-79
2021/03/18 03:17:33;;;;;;;;;11.67;11.00;;;;;;;;5061746;27;113577;-79
2021/03/18 03:20:01;;;;;;;;;14.67;13.00;;;;;;;;5064141;27;114202;-79
2021/03/18 03:22:30;;;;;;;;;18.00;14.67;;;;;;;;5066342;27;112426;-78
2021/03/18 03:24:57;;;;;;;;;11.00;11.00;;;;;;;;5063663;27;114521;-78
2021/03/18 03:27:24;;;;;;;;;16.00;13.33;;;;;;;;5062754;27;112339;-79
2021/03/18 03:29:51;;;;;;;;;13.67;12.33;;;;;;;;5062990;27;113689;-79
2021/03/18 03:32:17;;;;;;;;;13.33;10.67;;;;;;;;5062865;27;114423;-79
2021/03/18 03:34:43;;;;;;;;;10.00;10.00;;;;;;;;5062177;27;112059;-79
2021/03/18 03:37:10;;;;;;;;;13.33;13.00;;;;;;;;5064353;27;113640;-78
2021/03/18 03:39:36;;;;;;;;;10.33;9.67;;;;;;;;5060614;27;114353;-77
2021/03/18 03:42:03;;;;;;;;;13.00;9.33;;;;;;;;5061327;27;112031;-78
2021/03/18 03:44:32;;;;;;;;;11.00;9.00;;;;;;;;5067358;27;113441;-78
2021/03/18 03:46:58;;;;;;;;;14.00;11.00;;;;;;;;5061427;27;112444;-78
2021/03/18 03:49:24;;;;;;;;;13.00;10.67;;;;;;;;5063376;27;113612;-78
2021/03/18 03:51:54;;;;;;;;;10.67;10.00;;;;;;;;5061931;27;114464;-78
2021/03/18 03:54:23;;;;;;;;;10.33;9.33;;;;;;;;5061344;27;112041;-79
2021/03/18 03:56:54;;;;;;;;;9.33;9.00;;;;;;;;5063234;27;113131;-78
2021/03/18 04:01:21;;;;;;;;;14.00;13.50;;;;;;;;5064881;27;113095;-79
2021/03/18 04:03:47;;;;;;;;;9.00;9.00;;;;;;;;5043183;27;114032;-79
2021/03/18 04:06:14;;;;;;;;;18.33;13.00;;;;;;;;5043063;27;111978;-79
2021/03/18 04:08:43;;;;;;;;;11.33;11.33;;;;;;;;5043834;27;113559;-79
2021/03/18 04:11:09;;;;;;;;;13.00;10.00;;;;;;;;5041264;27;114093;-79
2021/03/18 04:13:36;;;;;;;;;12.00;10.33;;;;;;;;5045280;27;112574;-79
2021/03/18 04:16:03;;;;;;;;;10.33;10.33;;;;;;;;5042154;27;113375;-79
2021/03/18 04:18:33;;;;;;;;;13.33;11.67;;;;;;;;5043990;27;113977;-78
2021/03/18 04:21:00;;;;;;;;;10.00;10.00;;;;;;;;5045274;27;112226;-78
2021/03/18 04:23:27;;;;;;;;;9.33;8.33;;;;;;;;5044445;27;114138;-79
2021/03/18 04:25:54;;;;;;;;;9.67;9.67;;;;;;;;5042706;27;112014;-78
2021/03/18 04:28:20;;;;;;;;;12.67;12.00;;;;;;;;5043842;27;113005;-78
2021/03/18 04:30:46;;;;;;;;;12.00;12.00;;;;;;;;5039638;27;113089;-77
2021/03/18 04:33:13;;;;;;;;;9.00;9.00;;;;;;;;5042491;27;112166;-79
2021/03/18 04:35:42;;;;;;;;;14.67;12.67;;;;;;;;5044182;27;113564;-77
2021/03/18 04:38:08;;;;;;;;;13.67;11.33;;;;;;;;5042064;27;114696;-76
2021/03/18 04:40:34;;;;;;;;;10.00;9.33;;;;;;;;5044210;27;112366;-77
2021/03/18 04:43:01;;;;;;;;;12.75;12.00;;;;;;;;5049561;27;114852;-77
2021/03/18 04:45:30;;;;;;;;;10.00;10.00;;;;;;;;5044438;27;112391;-78
2021/03/18 04:47:57;;;;;;;;;12.75;9.50;;;;;;;;5042684;27;113959;-77
2021/03/18 04:50:23;;;;;;;;;12.50;10.00;;;;;;;;5043648;27;114169;-76
2021/03/18 04:52:51;;;;;;;;;13.25;9.75;;;;;;;;5041644;27;112646;-77
2021/03/18 04:55:18;;;;;;;;;11.75;11.00;;;;;;;;5042659;27;113437;-76
2021/03/18 04:57:47;;;;;;;;;11.00;10.50;;;;;;;;5042489;27;113726;-78
2021/03/18 05:00:15;;;;;;;;;8.00;8.00;;;;;;;;5041395;27;112190;-77
2021/03/18 05:02:42;;;;;;;;;8.00;8.00;;;;;;;;5042927;27;114080;-77
2021/03/18 05:05:11;;;;;;;;;11.33;10.00;;;;;;;;5044163;27;114354;-79
2021/03/18 05:07:37;;;;;;;;;13.75;12.00;;;;;;;;5043495;27;113650;-78
2021/03/18 05:10:05;;;;;;;;;11.00;11.00;;;;;;;;5039451;27;114141;-75
2021/03/18 05:15:07;;;;;;;;;14.75;11.00;;;;;;;;5085286;27;112487;-78
2021/03/18 05:17:33;;;;;;;;;10.00;10.00;;;;;;;;5064354;27;114523;-77
2021/03/18 05:20:00;;;;;;;;;16.00;13.00;;;;;;;;5066028;27;111903;-77
2021/03/18 05:22:27;;;;;;;;;13.75;12.00;;;;;;;;5062431;27;113866;-77
2021/03/18 05:24:53;;;;;;;;;13.00;13.00;;;;;;;;5063494;27;115105;-74
2021/03/18 05:27:19;;;;;;;;;13.50;11.50;;;;;;;;5063452;27;112668;-78
2021/03/18 05:29:45;;;;;;;;;16.50;14.75;;;;;;;;5063286;27;113331;-79
2021/03/18 05:32:12;;;;;;;;;11.50;11.50;;;;;;;;5063450;27;114352;-78
2021/03/18 05:34:38;;;;;;;;;13.00;13.00;;;;;;;;5065264;27;112074;-77
2021/03/18 05:37:04;;;;;;;;;10.00;10.00;;;;;;;;5064445;27;114135;-79
2021/03/18 05:39:30;;;;;;;;;11.00;10.50;;;;;;;;5069381;27;112005;-79
2021/03/18 05:41:56;;;;;;;;;9.00;9.00;;;;;;;;5062043;27;113165;-76
2021/03/18 05:44:22;;;;;;;;;13.50;13.00;;;;;;;;5062582;27;114108;-75
2021/03/18 05:46:48;;;;;;;;;13.75;12.00;;;;;;;;5064714;27;112651;-76
2021/03/18 05:49:15;;;;;;;;;13.25;12.25;;;;;;;;5064364;27;114285;-76
2021/03/18 05:51:44;;;;;;;;;16.75;14.25;;;;;;;;5061158;27;114218;-78
2021/03/18 05:54:10;;;;;;;;;19.00;14.25;;;;;;;;5065428;27;112357;-79
2021/03/18 05:56:38;;;;;;;;;16.00;14.25;;;;;;;;5067868;27;113393;-76
2021/03/18 05:59:05;;;;;;;;;13.00;13.00;;;;;;;;5055860;27;111851;-78
2021/03/18 06:01:30;;;;;;;;;16.75;12.50;;;;;;;;5061760;27;113658;-79
2021/03/18 06:03:57;;;;;;;;;10.00;10.00;;;;;;;;5060736;27;113577;-80
2021/03/18 06:06:24;;;;;;;;;16.50;13.50;;;;;;;;5065648;27;112122;-79
2021/03/18 06:08:50;;;;;;;;;14.50;13.25;;;;;;;;5062658;27;113925;-75
2021/03/18 06:11:16;;;;;;;;;15.00;14.25;;;;;;;;5062369;27;113273;-76
2021/03/18 06:13:42;;;;;;;;;13.00;12.50;;;;;;;;5063363;27;112062;-74
2021/03/18 06:16:08;;;;;;;;;20.00;15.75;;;;;;;;5061870;27;113454;-74
2021/03/18 06:18:35;;;;;;;;;15.50;15.50;;;;;;;;5063142;27;113537;-77
2021/03/18 06:21:01;;;;;;;;;18.00;13.00;;;;;;;;5063306;27;112769;-77
2021/03/18 06:23:31;;;;;;;;;13.25;12.75;;;;;;;;5059787;27;114034;-75
2021/03/18 06:25:58;;;;;;;;;13.50;12.75;;;;;;;;5052118;27;112445;-77
2021/03/18 06:28:25;;;;;;;;;14.50;14.50;;;;;;;;5046482;27;113414;-80
2021/03/18 06:31:01;;;;;;;;;14.00;13.00;;;;;;;;5047372;27;114908;-78
2021/03/18 06:33:28;;;;;;;;;19.25;16.25;;;;;;;;5046091;27;112327;-79
2021/03/18 06:35:55;;;;;;;;;13.75;13.75;;;;;;;;5049545;27;113601;-78
2021/03/18 06:38:25;;;;;;;;;13.25;12.25;;;;;;;;5046580;27;114100;-77
2021/03/18 06:40:52;;;;;;;;;5.25;5.25;;;;;;;;5051465;27;112224;-78
2021/03/18 06:43:18;;;;;;;;;5.33;5.33;;;;;;;;5046330;27;114732;-76
2021/03/18 06:45:45;;;;;;;;;8.00;5.00;;;;;;;;5045940;27;112212;-74
2021/03/18 06:48:12;;;;;;;;;6.67;4.67;;;;;;;;5049139;27;113722;-75
2021/03/18 06:50:38;;;;;;;;;5.00;5.00;;;;;;;;5046518;27;114395;-71
2021/03/18 06:53:17;;;;;;;;;5.33;5.00;;;;;;;;5049862;27;111828;-72
2021/03/18 06:55:43;;;;;;;;;5.00;5.00;;;;;;;;5047644;27;114971;-72
2021/03/18 06:58:20;;;;;;;;;8.67;4.00;;;;;;;;5048545;27;113938;-72
2021/03/18 07:00:47;;;;;;;;;5.00;5.00;;;;;;;;5047915;27;111855;-70
2021/03/18 07:03:23;;;;;;;;;5.00;5.00;;;;;;;;5050372;27;113251;-73
2021/03/18 07:05:49;;;;;;;;;5.33;4.67;;;;;;;;5046547;27;111896;-72
2021/03/18 07:08:21;;;;;;;;;1.00;1.00;;;;;;;;5050491;27;113850;-73
2021/03/18 07:10:47;;;;;;;;;1.67;1.00;;;;;;;;5049524;27;114588;-71
2021/03/18 07:13:23;;;;;;;;;3.00;0.00;;;;;;;;5045821;27;111979;-73
2021/03/18 07:15:50;;;;;;;;;0.33;0.33;;;;;;;;5047586;27;113422;-73
2021/03/18 07:18:16;;;;;;;;;0.00;0.00;;;;;;;;5047759;27;114158;-74
2021/03/18 07:20:54;;;;;;;;;1.00;1.00;;;;;;;;5046909;27;112016;-73
2021/03/18 07:23:31;;;;;;;;;1.00;1.00;;;;;;;;5043428;27;112984;-74
2021/03/18 07:25:57;;;;;;;;;0.67;0.33;;;;;;;;5053143;27;112005;-74
2021/03/18 07:28:24;;;;;;;;;5.33;3.67;;;;;;;;5047064;27;113323;-73
2021/03/18 07:30:51;;;;;;;;;3.00;3.00;;;;;;;;5047470;27;114140;-73
2021/03/18 07:33:19;;;;;;;;;6.00;3.00;;;;;;;;5050083;27;112243;-74
2021/03/18 07:35:45;;;;;;;;;5.00;3.00;;;;;;;;5048363;27;113485;-73
2021/03/18 07:38:11;;;;;;;;;7.00;5.33;;;;;;;;5045469;27;113635;-73
2021/03/18 07:40:38;;;;;;;;;4.33;2.00;;;;;;;;5048768;27;111941;-79
2021/03/18 07:43:04;;;;;;;;;2.67;2.67;;;;;;;;5046736;27;113787;-79
2021/03/18 07:45:31;;;;;;;;;5.00;5.00;;;;;;;;5052770;27;114187;-76
2021/03/18 07:47:57;;;;;;;;;9.00;6.00;;;;;;;;5047141;27;113298;-82
2021/03/18 07:50:26;;;;;;;;;7.33;7.00;;;;;;;;5047669;27;113850;-80
2021/03/18 07:52:54;;;;;;;;;8.33;8.33;;;;;;;;5047396;27;111967;-84
2021/03/18 07:55:21;;;;;;;;;1.00;1.00;;;;;;;;5047707;27;113422;-76
2021/03/18 07:57:50;;;;;;;;;7.67;6.67;;;;;;;;5046787;27;114788;-75
2021/03/18 08:00:16;;;;;;;;;2.00;2.00;;;;;;;;5047200;27;112776;-72
2021/03/18 08:02:43;;;;;;;;;2.00;1.00;;;;;;;;5047672;27;113568;-72
2021/03/18 08:05:10;;;;;;;;;2.00;2.00;;;;;;;;5045689;27;114561;-71
2021/03/18 08:07:37;;;;;;;;;2.00;2.00;;;;;;;;5052631;27;112122;-71
2021/03/18 08:10:05;;;;;;;;;1.67;1.67;;;;;;;;5045807;27;114068;-71
2021/03/18 08:12:41;;;;;;;;;1.67;1.67;;;;;;;;5045545;27;112446;-73
2021/03/18 08:15:21;;;;;;;;;1.00;1.00;;;;;;;;5045772;27;113401;-72
2021/03/18 08:17:48;;;;;;;;;2.00;2.00;;;;;;;;5046525;27;114647;-72
2021/03/18 08:20:35;;;;;;;;;2.67;2.67;;;;;;;;5046237;27;111942;-71
2021/03/18 08:23:21;;;;;;;;;2.00;2.00;;;;;;;;5045582;27;113398;-71
2021/03/18 08:25:47;;;;;;;;;1.00;1.00;;;;;;;;5045623;27;113993;-71
2021/03/18 08:28:28;;;;;;;;;1.00;1.00;;;;;;;;5047500;27;111999;-71
2021/03/18 08:30:55;;;;;;;;;1.00;1.00;;;;;;;;5050192;27;113956;-71
2021/03/18 08:33:31;;;;;;;;;1.00;1.00;;;;;;;;5046635;27;112373;-71
2021/03/18 08:36:12;;;;;;;;;1.00;1.00;;;;;;;;5048065;27;114191;-71
2021/03/18 08:38:40;;;;;;;;;2.25;2.00;;;;;;;;5044195;27;114736;-71
2021/03/18 08:41:06;;;;;;;;;1.00;1.00;;;;;;;;5044888;27;111985;-70
2021/03/18 08:43:32;;;;;;;;;1.25;1.00;;;;;;;;5044791;27;113671;-76
2021/03/18 08:45:58;;;;;;;;;1.50;1.50;;;;;;;;5047105;27;114002;-77
2021/03/18 08:48:25;;;;;;;;;1.00;1.00;;;;;;;;5045622;27;113072;-79
2021/03/18 08:50:58;;;;;;;;;1.00;1.00;;;;;;;;5050740;27;114014;-79
2021/03/18 08:53:25;;;;;;;;;1.00;1.00;;;;;;;;5048403;27;114117;-77
2021/03/18 08:55:52;;;;;;;;;2.00;1.00;;;;;;;;5047075;27;113960;-77
2021/03/18 08:58:18;;;;;;;;;1.00;1.00;;;;;;;;5044058;27;113117;-77
2021/03/18 09:00:45;;;;;;;;;0.25;0.25;;;;;;;;5051361;27;112393;-78
2021/03/18 09:03:14;;;;;;;;;1.00;1.00;;;;;;;;5044008;27;113467;-78
2021/03/18 09:05:48;;;;;;;;;1.00;1.00;;;;;;;;5043040;27;114255;-79
2021/03/18 09:08:20;;;;;;;;;1.00;1.00;;;;;;;;5045583;27;112064;-77
2021/03/18 09:10:47;;;;;;;;;0.00;0.00;;;;;;;;5045216;27;113858;-75
2021/03/18 09:13:14;;;;;;;;;0.00;0.00;;;;;;;;5043634;27;113994;-77
2021/03/18 09:15:41;;;;;;;;;0.00;0.00;;;;;;;;5049189;27;112425;-79
2021/03/18 09:18:12;;;;;;;;;0.00;0.00;;;;;;;;5047478;27;114191;-77
2021/03/18 09:20:39;;;;;;;;;0.00;0.00;;;;;;;;5043110;27;111932;-76
2021/03/18 09:23:09;;;;;;;;;0.00;0.00;;;;;;;;5051861;27;113596;-77
2021/03/18 09:25:36;;;;;;;;;0.00;0.00;;;;;;;;5047051;27;114248;-76
2021/03/18 09:28:03;;;;;;;;;0.00;0.00;;;;;;;;5045728;27;112003;-76
2021/03/18 09:30:30;;;;;;;;;0.00;0.00;;;;;;;;5045336;27;114022;-77
2021/03/18 09:32:57;;;;;;;;;0.00;0.00;;;;;;;;5044889;27;114033;-78
2021/03/18 09:35:23;;;;;;;;;0.00;0.00;;;;;;;;5048832;27;111830;-76
2021/03/18 09:37:50;;;;;;;;;0.00;0.00;;;;;;;;5047621;27;114534;-77
2021/03/18 09:40:16;;;;;;;;;0.00;0.00;;;;;;;;5051144;27;111999;-78
2021/03/18 09:42:44;;;;;;;;;0.00;0.00;;;;;;;;5047287;27;113488;-77
2021/03/18 09:45:17;;;;;;;;;0.00;0.00;;;;;;;;5047312;27;114339;-80
2021/03/18 09:47:46;;;;;;;;;0.00;0.00;;;;;;;;5043415;27;112007;-78
2021/03/18 09:50:12;;;;;;;;;0.00;0.00;;;;;;;;5042603;27;113212;-77
2021/03/18 09:52:39;;;;;;;;;1.00;0.00;;;;;;;;5042441;27;115479;-77
2021/03/18 09:55:10;;;;;;;;;0.00;0.00;;;;;;;;5042936;27;111998;-78
2021/03/18 09:57:37;;;;;;;;;0.00;0.00;;;;;;;;5049130;27;113527;-78
2021/03/18 10:00:05;;;;;;;;;0.33;0.00;;;;;;;;5043652;27;112038;-77
2021/03/18 10:02:31;;;;;;;;;0.00;0.00;;;;;;;;5053634;27;113791;-83
2021/03/18 10:04:57;;;;;;;;;0.00;0.00;;;;;;;;5050571;27;112743;-78
2021/03/18 10:07:28;;;;;;;;;0.00;0.00;;;;;;;;5050725;27;112000;-77
2021/03/18 10:09:54;;;;;;;;;0.67;0.00;;;;;;;;5046781;27;113509;-77
2021/03/18 10:12:22;;;;;;;;;0.00;0.00;;;;;;;;5048616;27;114486;-78
2021/03/18 10:14:54;;;;;;;;;0.00;0.00;;;;;;;;5045825;27;112376;-75
2021/03/18 10:17:24;;;;;;;;;0.00;0.00;;;;;;;;5046851;27;113445;-77
2021/03/18 10:19:51;;;;;;;;;0.00;0.00;;;;;;;;5055752;27;114178;-75
2021/03/18 10:22:20;;;;;;;;;0.00;0.00;;;;;;;;5049213;27;113443;-74
2021/03/18 10:24:57;;;;;;;;;0.00;0.00;;;;;;;;5045453;27;114264;-74
2021/03/18 10:27:23;;;;;;;;;0.00;0.00;;;;;;;;5045699;27;113647;-73
2021/03/18 10:29:49;;;;;;;;;0.00;0.00;;;;;;;;5047898;27;113771;-74
2021/03/18 10:32:18;;;;;;;;;0.00;0.00;;;;;;;;5046090;27;114136;-74
2021/03/18 10:34:53;;;;;;;;;2.00;0.00;;;;;;;;5045555;27;112245;-74
2021/03/18 10:37:24;;;;;;;;;0.00;0.00;;;;;;;;5044818;27;113429;-74
2021/03/18 10:39:50;;;;;;;;;0.00;0.00;;;;;;;;5045975;27;115102;-77
2021/03/18 10:42:29;;;;;;;;;0.00;0.00;;;;;;;;5050890;27;113291;-75
2021/03/18 10:44:55;;;;;;;;;0.00;0.00;;;;;;;;5046177;27;115075;-76
2021/03/18 10:47:22;;;;;;;;;0.00;0.00;;;;;;;;5044868;27;112901;-73
2021/03/18 10:49:59;;;;;;;;;2.00;0.00;;;;;;;;5046431;27;113967;-74
2021/03/18 10:52:25;;;;;;;;;0.00;0.00;;;;;;;;5044062;27;112910;-74
2021/03/18 10:54:53;;;;;;;;;0.00;0.00;;;;;;;;5051256;27;112134;-74
2021/03/18 10:57:19;;;;;;;;;1.00;0.00;;;;;;;;5048155;27;113639;-74
2021/03/18 10:59:52;;;;;;;;;0.33;0.00;;;;;;;;5050289;27;114091;-75
2021/03/18 11:02:18;;;;;;;;;1.67;0.00;;;;;;;;5047653;27;111870;-76
2021/03/18 11:04:51;;;;;;;;;0.00;0.00;;;;;;;;5050194;27;114605;-74
2021/03/18 11:07:18;;;;;;;;;1.75;0.00;;;;;;;;5047001;27;112240;-76
2021/03/18 11:09:44;;;;;;;;;0.00;0.00;;;;;;;;5043896;27;113645;-76
2021/03/18 11:12:10;;;;;;;;;0.50;0.50;;;;;;;;5051251;27;114207;-74
2021/03/18 11:14:36;;;;;;;;;1.00;1.00;;;;;;;;5054620;27;112265;-84
2021/03/18 11:17:02;;;;;;;;;0.00;0.00;;;;;;;;5056381;27;114733;-83
2021/03/18 11:19:28;;;;;;;;;0.25;0.25;;;;;;;;5048016;27;114328;-83
2021/03/18 11:21:59;;;;;;;;;0.00;0.00;;;;;;;;5052802;27;111938;-86
2021/03/18 11:24:27;;;;;;;;;0.00;0.00;;;;;;;;5052422;27;114050;-84
2021/03/18 11:26:55;;;;;;;;;2.00;2.00;;;;;;;;5052361;27;115172;-85
2021/03/18 11:29:26;;;;;;;;;2.00;2.00;;;;;;;;5045711;27;115357;-84
2021/03/18 11:31:53;;;;;;;;;1.00;1.00;;;;;;;;5044336;27;114462;-85
2021/03/18 11:34:22;;;;;;;;;4.00;3.50;;;;;;;;5052180;27;113701;-86
2021/03/18 11:36:50;;;;;;;;;7.00;5.25;;;;;;;;5056327;27;115235;-85
2021/03/18 11:39:16;;;;;;;;;1.50;1.00;;;;;;;;5052525;27;114239;-84
2021/03/18 11:41:43;;;;;;;;;1.25;1.25;;;;;;;;5051429;27;113527;-86
2021/03/18 11:44:10;;;;;;;;;1.00;1.00;;;;;;;;5056675;27;113564;-85
2021/03/18 11:46:36;;;;;;;;;2.25;1.00;;;;;;;;5045506;27;113371;-84
2021/03/18 11:49:02;;;;;;;;;1.00;1.00;;;;;;;;5046764;27;113771;-86
2021/03/18 11:51:28;;;;;;;;;3.00;1.00;;;;;;;;5043467;27;114330;-85
2021/03/18 11:53:54;;;;;;;;;1.00;1.00;;;;;;;;5047182;27;112020;-84
2021/03/18 11:56:20;;;;;;;;;0.00;0.00;;;;;;;;5047817;27;113308;-85
2021/03/18 11:58:47;;;;;;;;;2.00;1.00;;;;;;;;5049081;27;114161;-85
2021/03/18 12:01:14;;;;;;;;;2.50;2.50;;;;;;;;5054720;27;112091;-83
2021/03/18 12:03:40;;;;;;;;;10.00;8.50;;;;;;;;5054626;27;114250;-85
2021/03/18 12:06:07;;;;;;;;;7.00;5.25;;;;;;;;5047265;27;114321;-86
2021/03/18 12:08:33;;;;;;;;;1.00;1.00;;;;;;;;5048695;27;112254;-82
2021/03/18 12:10:59;;;;;;;;;1.00;1.00;;;;;;;;5044924;27;114491;-83
2021/03/18 12:13:25;;;;;;;;;1.25;1.00;;;;;;;;5048100;27;112184;-79
2021/03/18 18:02:01;;;;;;;;;4.00;4.00;;;;;;;;5076582;27;990078;-89
2021/03/18 18:04:27;;;;;;;;;4.00;4.00;;;;;;;;5080868;27;113792;-84
2021/03/18 18:06:53;;;;;;;;;3.67;3.67;;;;;;;;5081762;27;112282;-78
2021/03/18 18:09:19;;;;;;;;;4.00;4.00;;;;;;;;5081357;27;113609;-82
2021/03/18 18:11:45;;;;;;;;;2.00;2.00;;;;;;;;5082287;27;114339;-76
2021/03/18 18:14:11;;;;;;;;;6.00;6.00;;;;;;;;5088811;27;112142;-78
2021/03/18 18:16:37;;;;;;;;;6.67;6.67;;;;;;;;5087554;27;113996;-78
2021/03/18 18:19:06;;;;;;;;;6.00;6.00;;;;;;;;5091369;27;114006;-76
2021/03/18 18:21:32;;;;;;;;;4.00;4.00;;;;;;;;5094745;27;113156;-75
2021/03/18 18:23:58;;;;;;;;;4.00;3.00;;;;;;;;5088569;27;114709;-76
2021/03/18 18:26:24;;;;;;;;;4.00;3.00;;;;;;;;5091157;27;112306;-75
2021/03/18 18:28:50;;;;;;;;;6.00;4.67;;;;;;;;5086485;27;113372;-83
2021/03/18 18:31:16;;;;;;;;;5.00;4.00;;;;;;;;5081983;27;113287;-77
2021/03/18 18:33:42;;;;;;;;;7.67;6.00;;;;;;;;5082449;27;112649;-80
2021/03/18 18:36:11;;;;;;;;;6.33;6.33;;;;;;;;5081427;27;113869;-83
2021/03/18 18:38:37;;;;;;;;;6.67;6.67;;;;;;;;5082909;27;114995;-79
2021/03/18 18:41:03;;;;;;;;;7.33;6.00;;;;;;;;5085166;27;112063;-81
2021/03/18 18:43:29;;;;;;;;;6.00;6.00;;;;;;;;5083518;27;113685;-82
2021/03/18 18:45:55;;;;;;;;;6.33;5.33;;;;;;;;5081643;27;112010;-82
2021/03/18 18:48:21;;;;;;;;;7.67;6.00;;;;;;;;5085450;27;114103;-83
2021/03/18 18:50:47;;;;;;;;;7.67;5.33;;;;;;;;5080768;27;114370;-82
2021/03/18 18:53:14;;;;;;;;;6.67;4.00;;;;;;;;5083310;27;112109;-82
2021/03/18 18:55:40;;;;;;;;;4.67;4.67;;;;;;;;5080716;27;113628;-83
2021/03/18 18:58:06;;;;;;;;;2.00;2.00;;;;;;;;5080060;27;113865;-81
2021/03/18 19:00:34;;;;;;;;;6.00;3.67;;;;;;;;5082512;27;113150;-81
2021/03/18 19:03:00;;;;;;;;;4.00;3.00;;;;;;;;5088342;27;113631;-81
2021/03/18 19:05:26;;;;;;;;;3.00;3.00;;;;;;;;5083889;27;114355;-82
2021/03/18 19:07:57;;;;;;;;;3.00;3.00;;;;;;;;5082401;27;113916;-78
2021/03/18 19:10:25;;;;;;;;;4.00;4.00;;;;;;;;5080183;27;114102;-78
2021/03/18 19:12:52;;;;;;;;;5.33;4.67;;;;;;;;5071989;27;112022;-78
2021/03/18 19:15:18;;;;;;;;;5.00;4.00;;;;;;;;5067012;27;113714;-80
2021/03/18 19:17:44;;;;;;;;;4.67;4.67;;;;;;;;5068042;27;114611;-81
2021/03/18 19:20:11;;;;;;;;;7.00;5.33;;;;;;;;5069519;27;112033;-82
2021/03/18 19:22:38;;;;;;;;;3.33;3.00;;;;;;;;5069030;27;113628;-77
2021/03/18 19:25:04;;;;;;;;;3.67;3.67;;;;;;;;5070575;27;114107;-78
2021/03/18 19:27:31;;;;;;;;;5.00;3.00;;;;;;;;5069723;27;111858;-78
2021/03/18 19:29:58;;;;;;;;;3.00;2.00;;;;;;;;5073634;27;114107;-79
2021/03/18 19:32:25;;;;;;;;;3.00;3.00;;;;;;;;5068724;27;112330;-78
2021/03/18 19:34:51;;;;;;;;;3.33;3.33;;;;;;;;5067174;27;113442;-80
2021/03/18 19:37:17;;;;;;;;;9.00;3.00;;;;;;;;5067629;27;114078;-82
2021/03/18 19:39:45;;;;;;;;;3.00;3.00;;;;;;;;5069096;27;111964;-82
2021/03/18 19:42:12;;;;;;;;;4.00;4.00;;;;;;;;5067310;27;113388;-83
2021/03/18 19:44:39;;;;;;;;;6.00;4.00;;;;;;;;5067060;27;114430;-78
2021/03/18 19:47:05;;;;;;;;;4.67;3.33;;;;;;;;5066681;27;112039;-79
2021/03/18 19:49:31;;;;;;;;;3.67;3.67;;;;;;;;5072335;27;113945;-79
2021/03/18 19:51:57;;;;;;;;;3.67;3.00;;;;;;;;5065760;27;112048;-79
2021/03/18 19:54:23;;;;;;;;;7.00;3.67;;;;;;;;5065502;27;113417;-80
2021/03/18 19:56:49;;;;;;;;;7.00;4.33;;;;;;;;5065453;27;114244;-80
2021/03/18 19:59:15;;;;;;;;;4.33;3.00;;;;;;;;5067747;27;112024;-81
2021/03/18 20:01:42;;;;;;;;;3.00;3.00;;;;;;;;5065636;27;113594;-83
2021/03/18 20:04:08;;;;;;;;;3.00;3.00;;;;;;;;5049093;27;114941;-82
2021/03/18 20:06:34;;;;;;;;;2.33;2.33;;;;;;;;5033695;27;123802;-80
2021/03/18 20:09:00;;;;;;;;;3.00;3.00;;;;;;;;5033185;27;112469;-82
2021/03/18 20:11:26;;;;;;;;;4.00;3.00;;;;;;;;5039202;27;112287;-85
2021/03/18 20:13:52;;;;;;;;;3.00;3.00;;;;;;;;5036288;27;114207;-83